createdAt,value
2023-05-16T00:00:53.158Z,2.00
2023-05-16T00:03:22.505Z,2.25
2023-05-16T00:05:48.899Z,2.00
2023-05-16T00:08:15.322Z,1.90
2023-05-16T00:10:41.737Z,2.13
2023-05-16T00:13:08.109Z,2.10
2023-05-16T00:15:34.712Z,2.10
2023-05-16T00:18:03.650Z,2.13
2023-05-16T00:20:30.405Z,1.90
2023-05-16T00:23:00.979Z,1.75
2023-05-16T00:25:28.474Z,2.08
2023-05-16T00:27:54.815Z,2.10
2023-05-16T00:30:22.695Z,2.15
2023-05-16T00:32:49.342Z,2.58
2023-05-16T00:35:15.730Z,2.40
2023-05-16T00:37:42.089Z,2.33
2023-05-16T00:40:11.046Z,2.45
2023-05-16T00:42:38.170Z,2.13
2023-05-16T00:45:05.092Z,2.63
2023-05-16T00:47:31.588Z,2.35
2023-05-16T00:49:58.267Z,2.10
2023-05-16T00:52:24.849Z,2.15
2023-05-16T00:54:51.464Z,2.40
2023-05-16T00:57:18.129Z,2.40
2023-05-16T00:59:46.345Z,2.15
2023-05-16T01:02:13.230Z,2.08
2023-05-16T01:04:40.307Z,2.20
2023-05-16T01:07:06.663Z,2.15
2023-05-16T01:09:33.127Z,2.08
2023-05-16T01:12:04.940Z,2.38
2023-05-16T01:14:42.961Z,2.05
2023-05-16T01:17:19.181Z,2.05
2023-05-16T01:20:08.241Z,2.28
2023-05-16T01:22:43.779Z,2.17
2023-05-16T01:25:29.165Z,2.15
2023-05-16T01:27:56.621Z,2.30
2023-05-16T01:30:22.975Z,2.53
2023-05-16T01:32:49.356Z,2.22
2023-05-16T01:35:17.081Z,2.60
2023-05-16T01:37:59.548Z,2.40
2023-05-16T01:40:28.881Z,2.30
2023-05-16T01:42:56.315Z,2.58
2023-05-16T01:45:22.699Z,2.50
2023-05-16T01:47:52.511Z,2.72
2023-05-16T01:50:20.883Z,2.22
2023-05-16T01:52:53.980Z,2.20
2023-05-16T01:55:42.941Z,2.38
2023-05-16T01:58:10.193Z,2.33
2023-05-16T02:00:36.753Z,2.42
2023-05-16T02:03:03.247Z,2.33
2023-05-16T02:05:30.246Z,2.30
2023-05-16T02:07:57.724Z,2.60
2023-05-16T02:10:24.127Z,2.40
2023-05-16T02:12:50.943Z,2.58
2023-05-16T02:15:17.405Z,2.38
2023-05-16T02:17:43.774Z,2.97
2023-05-16T02:20:10.377Z,2.50
2023-05-16T02:22:39.363Z,2.28
2023-05-16T02:25:06.348Z,2.65
2023-05-16T02:27:32.779Z,2.67
2023-05-16T02:30:04.758Z,2.67
2023-05-16T02:32:31.917Z,2.55
2023-05-16T02:34:58.519Z,2.63
2023-05-16T02:37:25.080Z,2.40
2023-05-16T02:39:51.458Z,2.47
2023-05-16T02:42:17.816Z,2.42
2023-05-16T02:44:44.328Z,2.50
2023-05-16T02:47:13.193Z,2.33
2023-05-16T02:49:39.644Z,2.65
2023-05-16T02:52:06.162Z,1.92
2023-05-16T02:54:32.531Z,2.28
2023-05-16T02:56:58.873Z,2.55
2023-05-16T02:59:25.218Z,2.17
2023-05-16T03:01:52.086Z,2.70
2023-05-16T03:04:18.503Z,2.72
2023-05-16T03:06:44.939Z,2.88
2023-05-16T03:09:11.312Z,2.50
2023-05-16T03:11:37.792Z,2.58
2023-05-16T03:14:04.127Z,3.35
2023-05-16T03:16:30.532Z,2.40
2023-05-16T03:18:57.172Z,2.85
2023-05-16T03:21:23.787Z,2.72
2023-05-16T03:23:52.355Z,2.60
2023-05-16T03:26:18.690Z,2.63
2023-05-16T03:28:45.128Z,2.60
2023-05-16T03:31:11.558Z,2.10
2023-05-16T03:33:37.967Z,2.60
2023-05-16T03:36:05.405Z,2.53
2023-05-16T03:38:32.445Z,2.47
2023-05-16T03:41:01.590Z,2.33
2023-05-16T03:43:27.996Z,2.15
2023-05-16T03:45:54.429Z,2.35
2023-05-16T03:48:20.829Z,2.20
2023-05-16T03:50:47.802Z,2.15
2023-05-16T03:53:14.351Z,2.45
2023-05-16T03:55:40.731Z,2.28
2023-05-16T03:58:07.936Z,2.30
2023-05-16T04:00:34.568Z,2.30
2023-05-16T04:03:01.081Z,2.08
2023-05-16T04:05:27.997Z,2.42
2023-05-16T04:07:56.909Z,2.08
2023-05-16T04:10:23.358Z,2.30
2023-05-16T04:12:49.751Z,2.25
2023-05-16T04:15:16.119Z,2.50
2023-05-16T04:17:42.811Z,2.10
2023-05-16T04:20:11.815Z,2.50
2023-05-16T04:22:38.162Z,2.63
2023-05-16T04:25:04.651Z,2.65
2023-05-16T04:27:31.493Z,2.55
2023-05-16T04:29:59.346Z,2.25
2023-05-16T04:32:26.147Z,2.60
2023-05-16T04:34:54.270Z,2.40
2023-05-16T04:37:23.310Z,2.38
2023-05-16T04:39:49.660Z,2.38
2023-05-16T04:42:16.416Z,2.35
2023-05-16T04:44:44.000Z,2.90
2023-05-16T04:47:10.426Z,2.35
2023-05-16T04:49:36.870Z,2.50
2023-05-16T04:52:03.357Z,2.33
2023-05-16T04:54:29.723Z,2.35
2023-05-16T04:56:57.305Z,3.10
2023-05-16T04:59:23.651Z,2.08
2023-05-16T05:01:50.080Z,2.30
2023-05-16T05:04:17.704Z,2.42
2023-05-16T05:06:44.166Z,2.58
2023-05-16T05:09:11.030Z,2.85
2023-05-16T05:11:37.405Z,3.00
2023-05-16T05:14:03.891Z,2.70
2023-05-16T05:16:30.493Z,2.90
2023-05-16T05:18:56.931Z,2.67
2023-05-16T05:21:25.290Z,2.53
2023-05-16T05:23:51.635Z,2.70
2023-05-16T05:26:18.447Z,2.50
2023-05-16T05:28:53.857Z,2.65
2023-05-16T05:31:28.123Z,2.90
2023-05-16T05:33:54.877Z,2.80
2023-05-16T05:36:21.234Z,2.90
2023-05-16T05:38:47.593Z,3.17
2023-05-16T05:41:14.268Z,3.13
2023-05-16T05:43:40.728Z,2.92
2023-05-16T05:46:07.227Z,3.55
2023-05-16T05:48:33.714Z,3.10
2023-05-16T05:51:00.134Z,3.00
2023-05-16T05:53:28.852Z,3.50
2023-05-16T05:55:55.231Z,4.72
2023-05-16T05:58:21.739Z,4.32
2023-05-16T06:00:48.183Z,4.28
2023-05-16T06:03:14.706Z,4.30
2023-05-16T06:05:41.506Z,5.03
2023-05-16T06:08:07.958Z,4.38
2023-05-16T06:10:34.297Z,4.63
2023-05-16T06:13:00.919Z,4.70
2023-05-16T06:15:27.541Z,4.45
2023-05-16T06:17:54.222Z,4.95
2023-05-16T06:20:20.678Z,4.80
2023-05-16T06:22:47.103Z,5.28
2023-05-16T06:25:13.449Z,4.78
2023-05-16T06:27:39.835Z,5.20
2023-05-16T06:30:06.544Z,5.25
2023-05-16T06:32:32.919Z,5.47
2023-05-16T06:35:01.921Z,5.70
2023-05-16T06:37:28.293Z,6.40
2023-05-16T06:39:54.684Z,5.65
2023-05-16T06:42:21.312Z,5.70
2023-05-16T06:44:47.765Z,5.60
2023-05-16T06:47:16.879Z,5.28
2023-05-16T06:49:43.289Z,5.57
2023-05-16T06:52:12.246Z,5.30
2023-05-16T06:54:38.709Z,5.13
2023-05-16T06:57:05.457Z,5.45
2023-05-16T06:59:32.554Z,5.75
2023-05-16T07:01:59.073Z,6.03
2023-05-16T07:04:25.706Z,6.07
2023-05-16T07:06:52.097Z,6.00
2023-05-16T07:09:18.540Z,5.25
2023-05-16T07:11:44.979Z,5.35
2023-05-16T07:14:11.417Z,5.38
2023-05-16T07:16:37.975Z,5.65
2023-05-16T07:19:04.444Z,6.32
2023-05-16T07:21:33.100Z,5.53
2023-05-16T07:23:59.599Z,5.43
2023-05-16T07:26:26.675Z,5.93
2023-05-16T07:28:53.099Z,5.90
2023-05-16T07:31:19.672Z,5.53
2023-05-16T07:33:47.144Z,6.60
2023-05-16T07:36:16.955Z,5.80
2023-05-16T07:38:43.895Z,5.80
2023-05-16T07:41:10.343Z,6.30
2023-05-16T07:43:36.943Z,5.63
2023-05-16T07:46:03.660Z,5.88
2023-05-16T07:48:30.094Z,6.22
2023-05-16T07:50:56.610Z,6.97
2023-05-16T07:53:23.119Z,6.25
2023-05-16T07:55:50.066Z,6.35
2023-05-16T07:58:16.549Z,7.10
2023-05-16T08:00:43.021Z,6.57
2023-05-16T08:03:09.616Z,6.03
2023-05-16T08:05:36.081Z,6.22
2023-05-16T08:08:02.588Z,6.53
2023-05-16T08:10:29.040Z,6.05
2023-05-16T08:12:55.779Z,5.63
2023-05-16T08:15:22.595Z,6.10
2023-05-16T08:17:49.625Z,6.07
2023-05-16T08:20:16.368Z,5.90
2023-05-16T08:22:42.775Z,6.13
2023-05-16T08:25:09.260Z,5.85
2023-05-16T08:27:36.046Z,6.53
2023-05-16T08:30:03.058Z,6.40
2023-05-16T08:32:29.594Z,6.57
2023-05-16T08:34:56.160Z,6.20
2023-05-16T08:37:22.555Z,6.30
2023-05-16T08:39:55.008Z,6.00
2023-05-16T08:42:21.623Z,6.20
2023-05-16T08:44:48.081Z,5.53
2023-05-16T08:47:21.904Z,5.43
2023-05-16T08:49:48.684Z,5.75
2023-05-16T08:52:18.611Z,5.47
2023-05-16T08:54:50.355Z,6.10
2023-05-16T08:57:21.935Z,6.22
2023-05-16T08:59:48.371Z,6.00
2023-05-16T09:02:17.264Z,5.75
2023-05-16T09:04:45.212Z,5.07
2023-05-16T09:07:11.591Z,5.68
2023-05-16T09:09:37.994Z,6.57
2023-05-16T09:12:04.809Z,6.63
2023-05-16T09:14:31.245Z,6.88
2023-05-16T09:17:05.310Z,6.78
2023-05-16T09:19:42.213Z,7.47
2023-05-16T09:22:13.326Z,7.10
2023-05-16T09:24:43.182Z,6.50
2023-05-16T09:27:10.718Z,7.60
2023-05-16T09:29:37.650Z,7.90
2023-05-16T09:32:14.859Z,7.05
2023-05-16T09:34:45.700Z,7.18
2023-05-16T09:37:13.267Z,7.13
2023-05-16T09:39:41.756Z,8.70
2023-05-16T09:42:11.449Z,7.45
2023-05-16T09:44:37.992Z,8.02
2023-05-16T09:47:04.540Z,7.45
2023-05-16T09:49:31.036Z,7.25
2023-05-16T09:52:02.567Z,6.95
2023-05-16T09:54:37.367Z,6.85
2023-05-16T09:57:04.062Z,6.97
2023-05-16T09:59:31.038Z,7.15
2023-05-16T10:01:58.736Z,7.07
2023-05-16T10:04:25.796Z,7.05
2023-05-16T10:06:55.012Z,7.15
2023-05-16T10:09:22.554Z,6.88
2023-05-16T10:11:49.776Z,7.13
2023-05-16T10:14:20.216Z,6.68
2023-05-16T10:16:48.566Z,6.75
2023-05-16T10:19:16.850Z,7.22
2023-05-16T10:21:48.724Z,6.93
2023-05-16T10:24:17.557Z,6.80
2023-05-16T10:26:44.040Z,6.57
2023-05-16T10:29:10.988Z,7.15
2023-05-16T10:31:37.520Z,6.93
2023-05-16T10:34:04.054Z,6.68
2023-05-16T10:36:31.293Z,6.45
2023-05-16T10:38:58.496Z,6.28
2023-05-16T10:41:25.527Z,7.05
2023-05-16T10:43:58.409Z,6.40
2023-05-16T10:46:26.577Z,6.73
2023-05-16T10:48:55.073Z,7.00
2023-05-16T10:51:25.340Z,6.65
2023-05-16T10:53:52.098Z,6.55
2023-05-16T10:56:25.478Z,6.80
2023-05-16T10:58:53.059Z,7.78
2023-05-16T11:01:22.586Z,6.63
2023-05-16T11:04:01.650Z,6.97
2023-05-16T11:06:31.047Z,8.20
2023-05-16T11:09:06.826Z,7.18
2023-05-16T11:11:39.442Z,7.38
2023-05-16T11:14:05.930Z,7.55
2023-05-16T11:16:36.484Z,7.03
2023-05-16T11:19:07.112Z,7.28
2023-05-16T11:21:52.449Z,7.57
2023-05-16T11:24:29.498Z,7.80
2023-05-16T11:26:56.030Z,7.25
2023-05-16T11:29:22.488Z,7.45
2023-05-16T11:31:49.419Z,7.18
2023-05-16T11:34:16.323Z,7.85
2023-05-16T11:36:43.078Z,7.45
2023-05-16T11:39:10.386Z,6.90
2023-05-16T11:41:36.919Z,7.60
2023-05-16T11:44:03.380Z,7.40
2023-05-16T11:46:29.820Z,7.38
2023-05-16T11:48:56.989Z,7.75
2023-05-16T11:51:23.546Z,7.20
2023-05-16T11:53:50.096Z,8.25
2023-05-16T11:56:16.616Z,8.13
2023-05-16T11:58:43.027Z,7.53
2023-05-16T12:01:11.977Z,7.78
2023-05-16T12:03:39.313Z,6.78
2023-05-16T12:06:06.088Z,8.23
2023-05-16T12:08:32.978Z,8.00
2023-05-16T12:11:00.379Z,7.80
2023-05-16T12:13:27.024Z,8.27
2023-05-16T12:15:53.553Z,8.60
2023-05-16T12:18:26.351Z,8.32
2023-05-16T12:20:53.140Z,9.03
2023-05-16T12:23:22.957Z,9.13
2023-05-16T12:25:49.576Z,8.73
2023-05-16T12:28:16.273Z,8.75
2023-05-16T12:30:43.700Z,8.20
2023-05-16T12:33:11.139Z,8.93
2023-05-16T12:35:38.388Z,9.27
2023-05-16T12:38:08.690Z,9.98
2023-05-16T12:40:39.627Z,8.90
2023-05-16T12:43:13.537Z,8.60
2023-05-16T12:45:39.962Z,8.35
2023-05-16T12:48:12.154Z,8.05
2023-05-16T12:50:39.612Z,8.05
2023-05-16T12:53:10.599Z,7.90
2023-05-16T12:55:37.021Z,8.35
2023-05-16T12:58:03.612Z,7.97
2023-05-16T13:00:31.719Z,7.78
2023-05-16T13:03:00.883Z,8.00
2023-05-16T13:05:27.373Z,8.02
2023-05-16T13:07:56.180Z,8.07
2023-05-16T13:10:22.932Z,8.20
2023-05-16T13:12:51.453Z,8.05
2023-05-16T13:15:20.252Z,7.88
2023-05-16T13:17:48.510Z,7.40
2023-05-16T13:20:15.340Z,6.80
2023-05-16T13:22:42.962Z,7.15
2023-05-16T13:25:10.500Z,7.57
2023-05-16T13:27:37.016Z,7.50
2023-05-16T13:30:04.366Z,7.30
2023-05-16T13:32:30.854Z,6.05
2023-05-16T13:34:57.292Z,7.10
2023-05-16T13:37:24.697Z,5.53
2023-05-16T13:39:51.255Z,6.60
2023-05-16T13:42:17.660Z,8.30
2023-05-16T13:44:44.912Z,9.10
2023-05-16T13:47:11.809Z,5.82
2023-05-16T13:49:39.209Z,6.20
2023-05-16T13:52:06.303Z,6.13
2023-05-16T13:54:32.808Z,5.65
2023-05-16T13:56:59.177Z,5.40
2023-05-16T13:59:55.233Z,4.75
2023-05-16T14:02:16.899Z,3.70
2023-05-16T14:04:43.463Z,3.72
2023-05-16T14:07:09.940Z,3.58
2023-05-16T14:09:39.216Z,3.75
2023-05-16T14:12:08.676Z,3.00
2023-05-16T14:14:37.744Z,3.47
2023-05-16T14:17:04.422Z,3.33
2023-05-16T14:19:31.386Z,3.20
2023-05-16T14:22:00.820Z,3.17
2023-05-16T14:24:27.382Z,3.40
2023-05-16T14:26:58.375Z,3.50
2023-05-16T14:29:25.469Z,3.58
2023-05-16T14:31:52.185Z,3.30
2023-05-16T14:34:18.649Z,3.20
2023-05-16T14:36:45.066Z,3.38
2023-05-16T14:39:14.241Z,3.38
2023-05-16T14:41:40.650Z,3.40
2023-05-16T14:44:07.091Z,4.28
2023-05-16T14:46:33.905Z,4.30
2023-05-16T14:49:00.435Z,5.57
2023-05-16T14:51:26.852Z,4.75
2023-05-16T14:53:53.284Z,5.00
2023-05-16T14:56:26.961Z,4.65
2023-05-16T15:01:19.978Z,8.13
2023-05-16T15:03:54.507Z,4.53
2023-05-16T15:06:21.518Z,4.38
2023-05-16T15:08:47.951Z,4.68
2023-05-16T15:11:14.871Z,4.32
2023-05-16T15:13:41.345Z,3.88
2023-05-16T15:16:07.992Z,5.07
2023-05-16T15:18:34.555Z,6.45
2023-05-16T15:21:01.095Z,5.15
2023-05-16T15:23:27.547Z,4.72
2023-05-16T15:25:54.841Z,4.97
2023-05-16T15:28:22.754Z,5.88
2023-05-16T15:30:49.335Z,6.53
2023-05-16T15:33:15.769Z,7.45
2023-05-16T15:35:42.328Z,7.75
2023-05-16T15:38:08.817Z,6.07
2023-05-16T15:40:35.369Z,7.72
2023-05-16T15:43:01.787Z,6.75
2023-05-16T15:45:28.398Z,5.18
2023-05-16T15:47:55.046Z,5.70
2023-05-16T15:50:22.233Z,6.10
2023-05-16T15:52:49.059Z,5.80
2023-05-16T15:55:15.541Z,5.47
2023-05-16T15:57:43.852Z,5.95
2023-05-16T16:00:10.709Z,6.32
2023-05-16T16:02:37.279Z,5.53
2023-05-16T16:05:03.843Z,5.20
2023-05-16T16:07:30.258Z,5.60
2023-05-16T16:09:59.567Z,6.40
2023-05-16T16:12:29.377Z,6.25
2023-05-16T16:14:55.813Z,6.50
2023-05-16T16:17:22.262Z,6.40
2023-05-16T16:19:48.748Z,6.85
2023-05-16T16:22:16.201Z,6.93
2023-05-16T16:24:42.677Z,5.95
2023-05-16T16:27:09.150Z,5.85
2023-05-16T16:29:36.329Z,5.45
2023-05-16T16:32:02.743Z,5.45
2023-05-16T16:34:29.239Z,5.55
2023-05-16T16:36:55.700Z,5.97
2023-05-16T16:39:22.537Z,5.60
2023-05-16T16:41:49.756Z,5.80
2023-05-16T16:44:16.212Z,5.60
2023-05-16T16:46:42.765Z,5.88
2023-05-16T16:49:09.231Z,5.75
2023-05-16T16:51:35.831Z,5.53
2023-05-16T16:54:02.249Z,5.53
2023-05-16T16:56:30.027Z,5.13
2023-05-16T16:58:56.524Z,5.05
2023-05-16T17:01:23.136Z,5.65
2023-05-16T17:03:49.731Z,6.32
2023-05-16T17:06:16.481Z,5.93
2023-05-16T17:08:43.399Z,6.15
2023-05-16T17:11:09.849Z,6.60
2023-05-16T17:13:37.673Z,6.82
2023-05-16T17:16:06.689Z,6.80
2023-05-16T17:18:34.786Z,6.55
2023-05-16T17:21:01.604Z,6.18
2023-05-16T17:23:28.146Z,6.55
2023-05-16T17:25:54.569Z,7.00
2023-05-16T17:28:21.201Z,6.80
2023-05-16T17:30:47.737Z,6.82
2023-05-16T17:33:14.388Z,6.82
2023-05-16T17:35:41.109Z,7.20
2023-05-16T17:38:07.633Z,8.52
2023-05-16T17:40:34.116Z,7.60
2023-05-16T17:43:00.653Z,7.85
2023-05-16T17:45:29.792Z,7.75
2023-05-16T17:47:57.153Z,7.60
2023-05-16T17:50:24.008Z,7.55
2023-05-16T17:52:50.763Z,7.95
2023-05-16T17:55:17.332Z,7.90
2023-05-16T17:57:46.716Z,7.25
2023-05-16T18:00:15.086Z,8.52
2023-05-16T18:02:44.560Z,8.15
2023-05-16T18:07:38.688Z,8.02
2023-05-16T18:10:05.519Z,8.05
2023-05-16T18:12:32.017Z,8.52
2023-05-16T18:14:58.486Z,8.02
2023-05-16T18:17:24.975Z,8.82
2023-05-16T18:19:51.498Z,8.68
2023-05-16T18:22:21.018Z,8.80
2023-05-16T18:24:47.520Z,8.13
2023-05-16T18:27:16.627Z,8.73
2023-05-16T18:29:45.532Z,8.52
2023-05-16T18:32:12.304Z,8.82
2023-05-16T18:34:38.906Z,9.60
2023-05-16T18:37:06.718Z,8.85
2023-05-16T18:39:35.665Z,10.00
2023-05-16T18:42:02.272Z,9.27
2023-05-16T18:44:29.026Z,9.23
2023-05-16T18:46:57.531Z,10.02
2023-05-16T18:49:24.276Z,9.82
2023-05-16T18:51:50.729Z,9.00
2023-05-16T18:54:17.289Z,9.05
2023-05-16T18:56:43.937Z,8.98
2023-05-16T18:59:10.502Z,8.55
2023-05-16T19:01:37.171Z,8.40
2023-05-16T19:04:04.066Z,8.45
2023-05-16T19:06:33.231Z,8.27
2023-05-16T19:08:59.620Z,8.45
2023-05-16T19:11:26.705Z,8.75
2023-05-16T19:13:53.166Z,8.38
2023-05-16T19:16:19.672Z,9.30
2023-05-16T19:18:46.612Z,8.60
2023-05-16T19:21:15.799Z,8.45
2023-05-16T19:23:42.264Z,8.82
2023-05-16T19:26:08.735Z,10.20
2023-05-16T19:28:35.396Z,9.75
2023-05-16T19:31:01.885Z,9.82
2023-05-16T19:33:30.813Z,10.55
2023-05-16T19:35:59.855Z,10.73
2023-05-16T19:38:27.644Z,11.40
2023-05-16T19:40:54.580Z,10.63
2023-05-16T19:43:23.717Z,11.90
2023-05-16T19:45:50.165Z,11.25
2023-05-16T19:48:19.186Z,11.55
2023-05-16T19:50:46.115Z,12.20
2023-05-16T19:53:12.543Z,12.55
2023-05-16T19:55:39.206Z,12.73
2023-05-16T19:58:05.749Z,13.43
2023-05-16T20:00:32.186Z,13.32
2023-05-16T20:02:58.781Z,13.70
2023-05-16T20:05:25.795Z,14.07
2023-05-16T20:07:55.975Z,14.43
2023-05-16T20:10:22.554Z,14.65
2023-05-16T20:12:49.192Z,14.73
2023-05-16T20:15:16.271Z,16.33
2023-05-16T20:17:45.572Z,16.25
2023-05-16T20:20:12.075Z,17.48
2023-05-16T20:22:39.526Z,18.80
2023-05-16T20:25:06.906Z,19.67
2023-05-16T20:27:33.479Z,18.52
2023-05-16T20:30:00.004Z,19.13
2023-05-16T20:32:26.557Z,18.58
2023-05-16T20:34:53.041Z,20.38
2023-05-16T20:37:21.251Z,20.35
2023-05-16T20:39:47.626Z,19.50
2023-05-16T20:42:14.288Z,19.90
2023-05-16T20:44:41.558Z,19.23
2023-05-16T20:47:08.102Z,19.38
2023-05-16T20:49:39.149Z,18.25
2023-05-16T20:52:06.407Z,17.45
2023-05-16T20:54:33.491Z,17.98
2023-05-16T20:57:00.057Z,16.60
2023-05-16T20:59:26.523Z,16.33
2023-05-16T21:01:53.031Z,15.63
2023-05-16T21:04:19.450Z,16.05
2023-05-16T21:06:46.019Z,14.88
2023-05-16T21:09:12.558Z,13.98
2023-05-16T21:11:39.195Z,13.48
2023-05-16T21:14:05.603Z,13.93
2023-05-16T21:16:32.074Z,13.85
2023-05-16T21:19:01.438Z,13.23
2023-05-16T21:21:28.191Z,13.35
2023-05-16T21:23:55.930Z,13.55
2023-05-16T21:26:24.828Z,13.93
2023-05-16T21:28:55.464Z,13.70
2023-05-16T21:31:22.757Z,13.23
2023-05-16T21:33:52.086Z,12.75
2023-05-16T21:36:22.153Z,13.27
2023-05-16T21:38:48.617Z,12.95
2023-05-16T21:41:15.173Z,12.27
2023-05-16T21:43:41.591Z,12.52
2023-05-16T21:46:08.023Z,12.00
2023-05-16T21:48:34.605Z,12.15
2023-05-16T21:51:01.181Z,11.98
2023-05-16T21:53:27.661Z,12.13
2023-05-16T21:55:54.126Z,12.13
2023-05-16T21:58:20.643Z,12.52
2023-05-16T22:00:49.603Z,11.27
2023-05-16T22:03:21.048Z,11.80
2023-05-16T22:05:47.755Z,11.00
2023-05-16T22:08:14.206Z,11.98
2023-05-16T22:10:43.038Z,12.40
2023-05-16T22:13:09.521Z,11.80
2023-05-16T22:15:35.992Z,11.82
2023-05-16T22:18:02.746Z,11.32
2023-05-16T22:20:29.783Z,11.73
2023-05-16T22:22:56.382Z,11.80
2023-05-16T22:25:22.780Z,10.77
2023-05-16T22:27:49.241Z,12.10
2023-05-16T22:30:15.679Z,12.02
2023-05-16T22:32:42.217Z,11.40
2023-05-16T22:35:08.739Z,12.07
2023-05-16T22:37:35.170Z,12.13
2023-05-16T22:40:01.557Z,12.25
2023-05-16T22:42:31.284Z,12.13
2023-05-16T22:44:57.811Z,11.18
2023-05-16T22:47:24.272Z,12.00
2023-05-16T22:49:51.082Z,11.30
2023-05-16T22:52:17.596Z,11.40
2023-05-16T22:54:44.003Z,11.15
2023-05-16T22:57:10.410Z,11.10
2023-05-16T22:59:36.865Z,11.35
2023-05-16T23:02:05.398Z,11.32
2023-05-16T23:04:31.904Z,11.40
2023-05-16T23:06:58.376Z,11.82
2023-05-16T23:09:24.880Z,11.23
2023-05-16T23:11:51.378Z,10.70
2023-05-16T23:14:17.811Z,12.35
2023-05-16T23:16:44.225Z,11.43
2023-05-16T23:19:10.848Z,11.93
2023-05-16T23:21:37.552Z,12.70
2023-05-16T23:24:04.068Z,12.35
2023-05-16T23:26:31.428Z,13.20
2023-05-16T23:28:57.826Z,12.07
2023-05-16T23:31:24.253Z,11.35
2023-05-16T23:33:50.737Z,10.73
2023-05-16T23:36:17.177Z,10.48
2023-05-16T23:38:43.586Z,10.40
2023-05-16T23:41:10.034Z,9.80
2023-05-16T23:43:36.430Z,9.65
2023-05-16T23:46:02.818Z,10.48
2023-05-16T23:48:29.342Z,9.95
2023-05-16T23:50:55.785Z,9.85
2023-05-16T23:53:26.767Z,10.30
2023-05-16T23:55:53.160Z,9.80
2023-05-16T23:58:19.578Z,10.32
